• Join FlightAware (Why Join?)
  • Login
  • US Flag 
10:36PM EDT


 

Airport Tracker/Info


-or-


 

Live Flight TrackerFlight Track Log ✈ N468AM ✈ 07-Jul-2013 ✈ KDPA - KPTK

Flight Track Log - Related Links

Times and Time Zones

All times are in EDT time to prevent confusion due to time zone crossing. See the N468AM flight status page for this flight to view local times or setup timezone preferences in your user account.

Time Position Orientation Groundspeed Altitude Reporting Facility
EDT Latitude Longitude Course Direction KTS MPH feet Rate Location/Type
10:19PM 41.8850 -88.2975 274° West 211 243 2,900  Level Chicago Center
10:20PM 41.9494 -88.3053 355° North 243 280 5,400 2,580 Climbing Chicago Center
10:21PM 42.0214 -88.2992 North 256 295 8,200 2,520 Climbing Chicago Center
10:22PM 42.0836 -88.2389 36° Northeast 280 322 10,600 2,220 Climbing Chicago Center
10:23PM 42.1481 -88.1692 39° Northeast 292 336 12,800 2,040 Climbing Chicago Center
10:24PM 42.2108 -88.0989 40° Northeast 296 341 14,800 1,380 Climbing Chicago Center
10:25PM 42.2947 -88.0669 16° North 315 362 15,700 1,320 Climbing Chicago Center
10:26PM 42.3653 -87.9775 43° Northeast 332 382 17,600 1,920 Climbing Chicago Center
10:27PM 42.4378 -87.8653 49° Northeast 337 388 19,700 1,620 Climbing Chicago Center
10:29PM 42.5000 -87.7683 49° Northeast 340 391 21,000 600 Climbing Chicago Center
10:30PM 42.5625 -87.6681 50° Northeast 352 405 21,000  Level Chicago Center
10:31PM 42.6328 -87.5556 50° Northeast 372 428 21,000  Level Chicago Center
10:32PM 42.6644 -87.4197 72° East 395 455 21,000  Level Chicago Center
10:33PM 42.6697 -87.2775 87° East 393 452 21,000  Level Chicago Center
10:34PM 42.6731 -87.1294 88° East 394 453 21,000  Level Chicago Center
10:35PM 42.6781 -86.9511 88° East 394 453 21,000  Level Chicago Center
10:36PM 42.6822 -86.8044 88° East 392 451 21,000  Level Chicago Center
10:37PM 42.6858 -86.6578 88° East 391 450 21,000  Level Chicago Center
10:38PM 42.6883 -86.5089 89° East 388 447 21,000  Level Chicago Center
10:39PM 42.6925 -86.3656 88° East 392 451 21,000  Level Chicago Center
10:40PM 42.6947 -86.2194 89° East 391 450 21,000  Level Chicago Center
10:41PM 42.6975 -86.0733 88° East 391 450 21,000  Level Chicago Center
10:42PM 42.7011 -85.8978 88° East 392 451 21,000  Level Chicago Center
10:43PM 42.7036 -85.7517 89° East 392 451 21,000 -300 Level Chicago Center
10:44PM 42.7064 -85.6064 88° East 390 449 20,500 -540 Descending Chicago Center
10:45PM 42.7092 -85.4617 88° East 387 445 20,000 -300 Descending Chicago Center
10:46PM 42.7111 -85.3181 89° East 385 443 20,000  Level Chicago Center
10:47PM 42.7131 -85.1736 89° East 383 441 20,000  Level Chicago Center
10:48PM 42.7150 -85.0317 89° East 378 435 20,000 -300 Level Chicago Center
10:49PM 42.7161 -84.8933 89° East 372 428 19,400 -1,020 Descending Chicago Center
10:50PM 42.7172 -84.7394 89° East 342 394 18,000 -1,440 Descending Chicago Center
10:51PM 42.7172 -84.6125 90° East 338 389 16,500 -1,560 Descending Chicago Center
10:52PM 42.7158 -84.4886 91° East 331 381 14,900 -1,560 Descending Chicago Center
10:53PM 42.7142 -84.3681 91° East 322 371 13,400 -1,620 Descending Chicago Center
10:54PM 42.7114 -84.2850 93° East 319 367 12,200 -1,740 Descending Cleveland Center
10:54PM 42.7119 -84.1947 89° East 317 365 11,000 -1,620 Descending Cleveland Center
10:55PM 42.7094 -84.0786 92° East 302 348 9,400 -1,620 Descending Cleveland Center
10:56PM 42.7003 -83.9681 96° East 293 337 7,800 -1,680 Descending Cleveland Center
10:57PM 42.6950 -83.8547 94° East 290 334 6,100 -1,020 Descending Cleveland Center
10:59PM 42.6881 -83.7383 95° East 290 334 5,600 -420 Descending Cleveland Center